Time;durP1;ratioP1;P1;durP2;ratioP2;P2;SDS_P1;SDS_P2;PMS_P1;PMS_P2;Temp;Humidity;BMP_temperature;BMP_pressure;BME280_temperature;BME280_humidity;BME280_pressure;Samples;Min_cycle;Max_cycle;Signal;HPM_P1;HPM_P2
2021/05/22 00:00:40;;;;;;;20.13;3.30;;;28.80;13.60;;;;;;5047870;22;20109;-68
2021/05/22 00:03:07;;;;;;;18.05;3.70;;;28.80;13.50;;;;;;5045400;28;20458;-67
2021/05/22 00:05:34;;;;;;;15.48;3.17;;;28.50;13.50;;;;;;5043477;28;20077;-66
2021/05/22 00:08:00;;;;;;;21.27;3.67;;;28.50;13.60;;;;;;5049534;28;20096;-67
2021/05/22 00:10:29;;;;;;;16.58;3.53;;;28.60;14.40;;;;;;5045769;28;20109;-67
2021/05/22 00:12:55;;;;;;;14.05;3.63;;;28.50;14.60;;;;;;5043588;28;20085;-66
2021/05/22 00:15:21;;;;;;;14.80;3.55;;;28.40;14.60;;;;;;5047000;28;20078;-65
2021/05/22 00:17:48;;;;;;;17.48;4.45;;;28.40;14.80;;;;;;5045526;28;20069;-65
2021/05/22 00:20:16;;;;;;;16.45;4.05;;;28.20;14.90;;;;;;5042493;28;20524;-68
2021/05/22 00:22:44;;;;;;;18.40;3.60;;;27.90;14.80;;;;;;5045106;28;20070;-65
2021/05/22 00:25:12;;;;;;;19.13;4.10;;;27.80;14.90;;;;;;5044487;28;20108;-66
2021/05/22 00:27:39;;;;;;;18.20;3.40;;;27.80;14.70;;;;;;5049079;28;20165;-67
2021/05/22 00:30:12;;;;;;;18.63;4.03;;;27.70;14.50;;;;;;5047082;28;20069;-66
2021/05/22 00:32:39;;;;;;;35.10;3.95;;;27.80;14.90;;;;;;5042803;28;20131;-66
2021/05/22 00:35:07;;;;;;;16.75;3.47;;;27.90;14.90;;;;;;5041683;28;20070;-66
2021/05/22 00:37:34;;;;;;;22.40;3.75;;;28.00;14.80;;;;;;5046408;28;20470;-67
2021/05/22 00:40:00;;;;;;;22.70;3.55;;;27.90;15.10;;;;;;5044761;28;20486;-67
2021/05/22 00:42:27;;;;;;;17.77;3.97;;;27.60;15.40;;;;;;5042075;28;20090;-67
2021/05/22 00:45:15;;;;;;;21.98;3.80;;;27.20;15.60;;;;;;5044974;28;20104;-67
2021/05/22 00:47:47;;;;;;;14.57;2.97;;;27.30;15.70;;;;;;5045810;28;20070;-67
2021/05/22 00:50:26;;;;;;;24.75;4.75;;;27.30;15.00;;;;;;5048342;28;20494;-67
2021/05/22 00:52:53;;;;;;;16.55;3.50;;;27.30;15.10;;;;;;5043781;28;21619;-67
2021/05/22 00:55:21;;;;;;;18.25;3.60;;;27.00;14.80;;;;;;5045810;28;20419;-67
2021/05/22 00:57:47;;;;;;;18.65;3.45;;;27.10;15.30;;;;;;5046107;28;20116;-66
2021/05/22 01:00:17;;;;;;;17.00;3.65;;;27.10;14.80;;;;;;5044070;28;20123;-66
2021/05/22 01:02:44;;;;;;;19.45;3.53;;;26.90;14.80;;;;;;5043465;28;20081;-66
2021/05/22 01:05:11;;;;;;;19.88;3.13;;;26.80;15.20;;;;;;5045281;28;20070;-68
2021/05/22 01:07:38;;;;;;;20.48;3.70;;;26.70;15.00;;;;;;5045365;28;20076;-65
2021/05/22 01:10:06;;;;;;;20.38;3.25;;;26.70;15.40;;;;;;5046519;28;20092;-66
2021/05/22 01:12:41;;;;;;;24.83;3.80;;;26.60;15.50;;;;;;5041869;28;20066;-66
2021/05/22 01:15:12;;;;;;;24.98;3.28;;;26.40;15.90;;;;;;5042812;28;20097;-65
2021/05/22 01:17:43;;;;;;;27.48;3.90;;;26.50;15.80;;;;;;5045145;28;20089;-64
2021/05/22 01:20:25;;;;;;;19.42;3.58;;;26.30;16.00;;;;;;5047118;28;20069;-65
2021/05/22 01:23:00;;;;;;;23.70;4.03;;;26.30;16.40;;;;;;5047190;28;20081;-65
2021/05/22 01:25:36;;;;;;;21.90;4.18;;;26.00;16.20;;;;;;5042442;28;20137;-66
2021/05/22 01:28:06;;;;;;;24.17;3.35;;;25.80;16.50;;;;;;5045598;28;20077;-63
2021/05/22 01:30:34;;;;;;;21.23;3.47;;;25.60;16.30;;;;;;5051133;28;20074;-66
2021/05/22 01:33:02;;;;;;;22.10;3.63;;;25.60;16.60;;;;;;5043891;28;20617;-64
2021/05/22 01:35:32;;;;;;;19.23;3.72;;;25.60;16.90;;;;;;5048287;28;20084;-67
2021/05/22 01:37:58;;;;;;;29.13;3.60;;;25.60;16.70;;;;;;5046490;28;20062;-67
2021/05/22 01:40:25;;;;;;;20.00;3.95;;;25.60;16.60;;;;;;5047406;28;20076;-66
2021/05/22 01:42:52;;;;;;;24.33;3.95;;;25.70;16.60;;;;;;5041899;28;20078;-66
2021/05/22 01:45:27;;;;;;;19.83;3.70;;;26.00;16.30;;;;;;5040419;28;20100;-63
2021/05/22 01:47:56;;;;;;;12.80;4.03;;;26.20;16.40;;;;;;5047596;28;20115;-66
2021/05/22 01:50:35;;;;;;;24.33;3.53;;;25.60;16.80;;;;;;5114546;27;20402;-66
2021/05/22 01:53:07;;;;;;;20.58;3.40;;;25.50;17.50;;;;;;5097590;28;20088;-66
2021/05/22 01:55:37;;;;;;;17.58;3.58;;;25.60;17.60;;;;;;5093736;28;20152;-67
2021/05/22 01:58:17;;;;;;;23.17;4.80;;;25.60;17.40;;;;;;5094265;28;20082;-66
2021/05/22 02:00:45;;;;;;;18.45;3.42;;;25.30;17.50;;;;;;5081260;28;20069;-65
2021/05/22 02:03:33;;;;;;;23.95;3.63;;;25.00;17.70;;;;;;5094311;28;20101;-64
2021/05/22 02:06:02;;;;;;;27.20;3.90;;;24.80;17.60;;;;;;5092038;28;20433;-64
2021/05/22 02:08:30;;;;;;;25.25;4.28;;;24.60;18.40;;;;;;5088495;28;20157;-63
2021/05/22 02:10:56;;;;;;;14.07;2.95;;;24.30;18.50;;;;;;5088949;28;20098;-65
2021/05/22 02:13:23;;;;;;;27.30;4.10;;;24.20;18.80;;;;;;5094364;28;20076;-65
2021/05/22 02:15:59;;;;;;;21.23;4.30;;;24.20;18.90;;;;;;5094615;28;20077;-59
2021/05/22 02:18:31;;;;;;;21.80;4.20;;;24.10;18.70;;;;;;5089485;28;20144;-65
2021/05/22 02:21:00;;;;;;;18.83;3.78;;;24.00;18.60;;;;;;5085996;28;20091;-67
2021/05/22 02:23:28;;;;;;;32.90;3.97;;;23.80;18.90;;;;;;5076398;28;20599;-66
2021/05/22 02:25:59;;;;;;;24.77;3.97;;;23.70;18.80;;;;;;5092198;28;20137;-65
2021/05/22 02:28:31;;;;;;;23.20;3.65;;;23.70;18.80;;;;;;5093678;28;20099;-66
2021/05/22 02:30:59;;;;;;;20.05;3.88;;;23.50;18.80;;;;;;5096291;28;20073;-65
2021/05/22 02:33:26;;;;;;;17.38;3.17;;;23.50;19.70;;;;;;5098320;28;20160;-63
2021/05/22 02:35:54;;;;;;;17.63;3.25;;;23.40;19.30;;;;;;5097306;28;20122;-63
2021/05/22 02:38:29;;;;;;;13.32;3.05;;;23.30;19.30;;;;;;5096208;28;20076;-63
2021/05/22 02:41:02;;;;;;;27.42;3.38;;;23.20;19.70;;;;;;5091090;28;20076;-64
2021/05/22 02:43:33;;;;;;;35.55;4.50;;;23.30;20.30;;;;;;5094347;28;20089;-65
2021/05/22 02:46:02;;;;;;;35.55;4.22;;;23.20;21.20;;;;;;5093271;28;20087;-65
2021/05/22 02:48:30;;;;;;;36.63;4.75;;;23.20;21.60;;;;;;5122056;27;20198;-63
2021/05/22 02:51:00;;;;;;;54.03;5.13;;;23.20;21.50;;;;;;5094522;28;20486;-63
2021/05/22 02:53:28;;;;;;;41.13;5.20;;;23.00;21.90;;;;;;5094577;28;20077;-62
2021/05/22 02:55:57;;;;;;;35.92;5.25;;;23.00;22.10;;;;;;5092292;28;20134;-63
2021/05/22 02:58:25;;;;;;;36.58;5.40;;;22.80;22.10;;;;;;5091432;28;20294;-64
2021/05/22 03:00:52;;;;;;;39.88;5.38;;;22.80;22.00;;;;;;5085674;28;20097;-64
2021/05/22 03:03:21;;;;;;;54.70;6.13;;;22.70;22.20;;;;;;5078937;28;20077;-62
2021/05/22 03:05:48;;;;;;;48.97;6.20;;;22.60;22.20;;;;;;5081543;28;20497;-64
2021/05/22 03:08:14;;;;;;;32.00;5.65;;;22.50;22.30;;;;;;5078291;28;20096;-63
2021/05/22 03:10:41;;;;;;;30.45;5.15;;;22.40;21.80;;;;;;5078422;28;20134;-63
2021/05/22 03:13:08;;;;;;;25.60;4.32;;;22.40;21.90;;;;;;5083206;28;20147;-64
2021/05/22 03:15:35;;;;;;;22.67;3.22;;;22.30;21.80;;;;;;5076775;28;20072;-62
2021/05/22 03:18:01;;;;;;;24.65;4.10;;;22.30;22.00;;;;;;5082062;28;21492;-63
2021/05/22 03:20:28;;;;;;;33.13;4.13;;;22.30;22.00;;;;;;5078381;28;20143;-63
2021/05/22 03:22:55;;;;;;;18.27;3.97;;;22.30;22.00;;;;;;5085809;28;20126;-63
2021/05/22 03:25:22;;;;;;;26.10;4.57;;;22.20;21.90;;;;;;5078672;28;20075;-64
2021/05/22 03:27:48;;;;;;;26.25;3.83;;;22.20;22.10;;;;;;5082658;28;20083;-63
2021/05/22 03:30:15;;;;;;;15.45;3.88;;;22.10;22.00;;;;;;5075943;28;20092;-62
2021/05/22 03:32:42;;;;;;;18.23;3.58;;;22.10;22.20;;;;;;5075535;28;20152;-65
2021/05/22 03:35:09;;;;;;;20.90;5.25;;;22.00;22.30;;;;;;5072124;28;20076;-64
2021/05/22 03:37:35;;;;;;;25.98;5.55;;;21.90;22.40;;;;;;5074042;28;20480;-63
2021/05/22 03:40:03;;;;;;;17.58;5.13;;;21.80;22.70;;;;;;5075353;28;20160;-63
2021/05/22 03:42:29;;;;;;;24.20;5.60;;;21.70;23.00;;;;;;5074271;28;20077;-65
2021/05/22 03:44:55;;;;;;;18.92;5.50;;;21.70;23.10;;;;;;5077655;28;20064;-64
2021/05/22 03:47:22;;;;;;;25.42;5.43;;;21.50;23.20;;;;;;5074031;28;20077;-63
2021/05/22 03:49:48;;;;;;;23.20;4.35;;;21.50;23.20;;;;;;5077101;28;20119;-63
2021/05/22 03:52:15;;;;;;;20.77;4.55;;;21.30;23.30;;;;;;5077601;28;20167;-63
2021/05/22 03:54:41;;;;;;;22.13;4.75;;;21.20;23.40;;;;;;5073895;28;20164;-63
2021/05/22 03:57:08;;;;;;;26.75;4.63;;;21.20;23.60;;;;;;5076560;28;20077;-64
2021/05/22 03:59:35;;;;;;;23.90;4.88;;;21.10;23.60;;;;;;5073735;28;20084;-64
2021/05/22 04:02:01;;;;;;;23.65;4.55;;;21.10;23.70;;;;;;5076684;28;20077;-64
2021/05/22 04:04:27;;;;;;;22.15;4.68;;;21.10;23.70;;;;;;5078419;28;20160;-63
2021/05/22 04:06:54;;;;;;;21.85;4.05;;;21.00;23.80;;;;;;5075184;28;20170;-64
2021/05/22 04:09:20;;;;;;;20.38;4.38;;;21.00;24.10;;;;;;5074729;28;20100;-64
2021/05/22 04:11:47;;;;;;;22.52;6.28;;;20.90;24.40;;;;;;5075706;28;20065;-62
2021/05/22 04:14:14;;;;;;;28.15;10.32;;;20.80;24.60;;;;;;5071203;28;20131;-64
2021/05/22 04:16:40;;;;;;;28.75;6.32;;;20.80;24.90;;;;;;5074367;28;20061;-64
2021/05/22 04:19:07;;;;;;;20.80;5.25;;;20.70;25.20;;;;;;5071946;28;20077;-63
2021/05/22 04:21:33;;;;;;;36.88;8.93;;;20.60;25.70;;;;;;5076050;28;20171;-63
2021/05/22 04:24:00;;;;;;;30.15;6.75;;;20.50;26.20;;;;;;5076794;28;20077;-63
2021/05/22 04:26:26;;;;;;;21.85;4.70;;;20.40;26.60;;;;;;5076718;28;20080;-63
2021/05/22 04:28:53;;;;;;;36.08;4.72;;;20.30;27.00;;;;;;5077317;28;20095;-63
2021/05/22 04:31:19;;;;;;;23.35;4.03;;;20.30;27.00;;;;;;5078297;28;20076;-62
2021/05/22 04:33:46;;;;;;;25.67;4.63;;;20.30;27.00;;;;;;5075930;28;20069;-62
2021/05/22 04:36:12;;;;;;;23.95;4.55;;;20.30;27.10;;;;;;5078053;28;20077;-63
2021/05/22 04:38:39;;;;;;;23.67;4.43;;;20.20;27.20;;;;;;5078138;28;20519;-63
2021/05/22 04:41:06;;;;;;;23.05;3.92;;;20.10;38.20;;;;;;5079493;28;20051;-62
2021/05/22 04:43:32;;;;;;;25.75;3.88;;;19.80;42.60;;;;;;5078533;28;20100;-62
2021/05/22 04:45:59;;;;;;;23.65;4.95;;;20.00;27.40;;;;;;5078737;28;20113;-62
2021/05/22 04:48:25;;;;;;;23.08;5.00;;;19.80;30.70;;;;;;5074568;28;20203;-62
2021/05/22 04:50:54;;;;;;;29.88;4.78;;;19.60;33.90;;;;;;5076326;28;20083;-64
2021/05/22 04:53:24;;;;;;;20.75;4.75;;;19.80;28.30;;;;;;5076725;28;20083;-64
2021/05/22 04:55:51;;;;;;;28.10;4.75;;;19.70;28.50;;;;;;5080425;28;20072;-63
2021/05/22 04:58:17;;;;;;;33.15;5.47;;;19.70;28.70;;;;;;5074508;28;20073;-64
2021/05/22 05:00:44;;;;;;;24.80;5.47;;;19.70;28.80;;;;;;5078656;28;20084;-64
2021/05/22 05:03:10;;;;;;;24.75;6.50;;;19.70;29.00;;;;;;5072466;28;20065;-62
2021/05/22 05:05:37;;;;;;;26.75;7.88;;;19.60;29.00;;;;;;5082476;28;20147;-63
2021/05/22 05:08:05;;;;;;;32.30;7.30;;;19.50;29.20;;;;;;5076722;28;20077;-65
2021/05/22 05:10:33;;;;;;;18.40;4.90;;;19.50;29.50;;;;;;5073905;28;20097;-61
2021/05/22 05:13:00;;;;;;;25.25;4.07;;;19.40;29.60;;;;;;5072846;28;20088;-63
2021/05/22 05:15:27;;;;;;;17.15;4.13;;;19.40;29.80;;;;;;5072013;28;20073;-63
2021/05/22 05:17:53;;;;;;;23.00;4.95;;;19.30;30.00;;;;;;5076706;28;20064;-62
2021/05/22 05:20:19;;;;;;;;;;;19.20;30.00;;;;;;5075503;28;20552;-61
2021/05/22 05:22:50;;;;;;;19.52;4.05;;;17.80;48.00;;;;;;5073341;28;19957;-63
2021/05/22 05:25:17;;;;;;;24.55;4.50;;;19.00;55.60;;;;;;5075149;28;20031;-63
2021/05/22 05:27:44;;;;;;;11.70;2.92;;;19.00;30.00;;;;;;5073596;28;20080;-61
2021/05/22 05:30:11;;;;;;;13.50;3.92;;;19.00;29.90;;;;;;5075398;28;20101;-61
2021/05/22 05:32:37;;;;;;;13.07;3.50;;;18.60;43.50;;;;;;5073608;28;20080;-63
2021/05/22 05:35:04;;;;;;;;;;;18.80;30.80;;;;;;5078076;28;20401;-64
2021/05/22 05:37:31;;;;;;;23.40;4.00;;;18.30;38.80;;;;;;5072568;28;19908;-63
2021/05/22 05:39:57;;;;;;;19.58;3.40;;;18.80;29.40;;;;;;5073954;28;20079;-64
2021/05/22 05:42:23;;;;;;;;;;;18.80;28.60;;;;;;5078035;28;20105;-62
2021/05/22 05:44:50;;;;;;;22.40;3.83;;;18.80;28.60;;;;;;5079563;28;19957;-65
2021/05/22 05:47:16;;;;;;;;;;;18.70;28.90;;;;;;5079331;22;20120;-64
2021/05/22 05:49:42;;;;;;;16.08;4.07;;;18.60;28.50;;;;;;5028384;28;19984;-64
2021/05/22 05:52:09;;;;;;;21.75;4.35;;;18.60;28.10;;;;;;5029974;28;20070;-63
2021/05/22 05:54:36;;;;;;;20.42;4.05;;;18.60;28.20;;;;;;5011702;28;20101;-64
2021/05/22 05:57:02;;;;;;;;;;;18.60;28.40;;;;;;5030174;28;20070;-64
2021/05/22 05:59:29;;;;;;;16.42;4.63;;;18.50;28.50;;;;;;5028521;28;19968;-62
2021/05/22 06:01:55;;;;;;;;;;;18.50;28.60;;;;;;5030890;28;20072;-63
2021/05/22 06:04:21;;;;;;;18.63;4.50;;;18.50;28.70;;;;;;5030789;28;20027;-64
2021/05/22 06:06:49;;;;;;;;;;;18.40;28.60;;;;;;5031252;28;20155;-62
2021/05/22 06:09:17;;;;;;;24.55;5.40;;;18.40;28.40;;;;;;5031039;28;19989;-63
2021/05/22 06:11:44;;;;;;;20.88;4.72;;;18.40;28.20;;;;;;5020012;28;20086;-64
2021/05/22 06:14:20;;;;;;;23.52;4.85;;;18.40;28.10;;;;;;5030125;28;20066;-64
2021/05/22 06:16:47;;;;;;;20.05;5.15;;;18.40;27.90;;;;;;5030873;28;20069;-61
2021/05/22 06:19:14;;;;;;;18.67;4.03;;;18.40;28.00;;;;;;5054839;22;20139;-65
2021/05/22 06:21:42;;;;;;;17.70;4.78;;;18.30;27.30;;;;;;5071546;28;20080;-65
2021/05/22 06:24:12;;;;;;;21.70;4.53;;;18.30;27.10;;;;;;5055350;28;20070;-64
2021/05/22 06:26:40;;;;;;;18.20;3.70;;;18.30;26.90;;;;;;5074768;28;20064;-65
2021/05/22 06:29:08;;;;;;;24.30;4.22;;;18.30;26.50;;;;;;5076334;28;20101;-64
2021/05/22 06:31:36;;;;;;;15.93;3.88;;;18.30;26.30;;;;;;5060648;28;20539;-63
2021/05/22 06:34:04;;;;;;;20.80;3.85;;;18.30;26.10;;;;;;5070527;28;20084;-63
2021/05/22 06:36:30;;;;;;;;;;;18.30;26.00;;;;;;5053585;28;20069;-62
2021/05/22 06:38:57;;;;;;;15.02;3.55;;;18.30;25.70;;;;;;5071744;28;19961;-61
2021/05/22 06:41:24;;;;;;;19.25;3.53;;;18.20;26.00;;;;;;5072506;28;20543;-64
2021/05/22 06:43:51;;;;;;;;;;;18.30;25.90;;;;;;5055440;28;20134;-64
2021/05/22 06:48:44;;;;;;;19.52;3.97;;;18.20;25.70;;;;;;5071617;28;20101;-64
2021/05/22 06:51:10;;;;;;;;;;;18.20;25.80;;;;;;5072438;28;20438;-64
2021/05/22 06:53:36;;;;;;;16.30;3.55;;;18.20;25.90;;;;;;5072675;28;19967;-63
2021/05/22 06:56:03;;;;;;;;;;;18.20;26.10;;;;;;5071856;28;20065;-64
2021/05/22 06:58:29;;;;;;;17.75;2.97;;;18.20;25.80;;;;;;5071427;28;20018;-61
2021/05/22 07:00:57;;;;;;;;;;;18.10;25.70;;;;;;5073102;28;20077;-64
2021/05/22 07:03:25;;;;;;;11.05;2.67;;;18.10;25.50;;;;;;5072081;28;19956;-63
2021/05/22 07:05:51;;;;;;;18.00;3.53;;;18.10;25.20;;;;;;5072111;28;20073;-61
2021/05/22 07:08:18;;;;;;;;;;;18.10;25.10;;;;;;5072120;28;20087;-63
2021/05/22 07:10:46;;;;;;;14.18;3.70;;;18.00;25.20;;;;;;5072446;28;19957;-64
2021/05/22 07:13:12;;;;;;;13.35;3.08;;;18.00;25.00;;;;;;5066502;28;20077;-63
2021/05/22 07:15:38;;;;;;;;;;;18.00;24.70;;;;;;5073679;28;20433;-63
2021/05/22 07:18:05;;;;;;;10.32;2.25;;;18.00;24.60;;;;;;5052919;28;19956;-63
2021/05/22 07:20:32;;;;;;;13.02;2.60;;;18.00;24.40;;;;;;5073204;28;20642;-63
2021/05/22 07:22:58;;;;;;;;;;;18.00;24.20;;;;;;5059337;28;20521;-63
2021/05/22 07:25:28;;;;;;;11.30;2.30;;;18.00;24.20;;;;;;5071945;28;19957;-64
2021/05/22 07:27:56;;;;;;;9.27;1.90;;;18.00;23.90;;;;;;5071441;28;20231;-63
2021/05/22 07:30:23;;;;;;;14.43;2.35;;;18.00;23.60;;;;;;5051480;28;20127;-63
2021/05/22 07:32:50;;;;;;;13.90;2.15;;;18.00;23.60;;;;;;5055716;28;20081;-62
2021/05/22 07:35:19;;;;;;;;;;;18.00;23.50;;;;;;5070949;28;20210;-64
2021/05/22 07:37:47;;;;;;;7.88;1.70;;;17.90;23.50;;;;;;5053027;28;19964;-64
2021/05/22 07:40:14;;;;;;;14.35;1.88;;;18.00;23.50;;;;;;5071620;28;20069;-63
2021/05/22 07:42:47;;;;;;;8.40;1.77;;;17.50;27.10;;;;;;5071025;28;20076;-62
2021/05/22 07:45:14;;;;;;;10.27;1.98;;;17.90;23.60;;;;;;5050162;28;20065;-62
2021/05/22 07:47:41;;;;;;;7.75;1.83;;;17.90;23.50;;;;;;5054849;28;20081;-63
2021/05/22 07:50:08;;;;;;;12.80;2.17;;;17.90;23.50;;;;;;5071390;28;20101;-62
2021/05/22 07:52:36;;;;;;;9.18;1.85;;;17.80;23.50;;;;;;5051901;28;20075;-62
2021/05/22 07:55:02;;;;;;;6.63;1.90;;;17.90;23.50;;;;;;5053555;28;20119;-62
2021/05/22 07:57:29;;;;;;;8.20;1.92;;;17.90;23.30;;;;;;5071488;28;20073;-63
2021/05/22 07:59:55;;;;;;;;;;;17.90;23.20;;;;;;5069787;22;20207;-62
2021/05/22 08:02:21;;;;;;;11.18;1.85;;;17.90;23.00;;;;;;5052938;28;19965;-60
2021/05/22 08:04:48;;;;;;;;;;;17.90;23.00;;;;;;5048864;28;20077;-60
2021/05/22 08:07:14;;;;;;;11.15;2.03;;;17.90;22.80;;;;;;5037333;28;20032;-61
2021/05/22 08:09:40;;;;;;;;;;;17.90;22.80;;;;;;5054572;28;20105;-61
2021/05/22 08:12:07;;;;;;;7.20;2.17;;;17.90;22.80;;;;;;5034488;28;19957;-62
2021/05/22 08:14:34;;;;;;;8.15;1.92;;;17.80;22.80;;;;;;5046855;28;20161;-65
2021/05/22 08:17:00;;;;;;;9.38;1.73;;;17.80;22.70;;;;;;5051403;28;20148;-63
2021/05/22 08:19:26;;;;;;;;;;;17.80;22.60;;;;;;5046683;28;20079;-62
2021/05/22 08:21:53;;;;;;;5.03;1.30;;;17.80;22.40;;;;;;5053889;28;20170;-61
2021/05/22 08:24:19;;;;;;;;;;;17.80;22.30;;;;;;5047592;28;20164;-63
2021/05/22 08:26:45;;;;;;;10.98;1.67;;;17.90;22.10;;;;;;5054149;28;20047;-64
2021/05/22 08:29:11;;;;;;;;;;;17.90;22.00;;;;;;5037484;28;20086;-63
2021/05/22 08:31:40;;;;;;;5.32;1.35;;;17.80;21.90;;;;;;5052954;28;19984;-62
2021/05/22 08:34:06;;;;;;;10.00;1.58;;;17.80;21.90;;;;;;5053391;28;20077;-63
2021/05/22 08:36:33;;;;;;;5.57;1.70;;;17.90;21.70;;;;;;5052362;28;20028;-64
2021/05/22 08:39:00;;;;;;;14.63;1.75;;;17.80;22.00;;;;;;5051686;28;20423;-61
2021/05/22 08:41:28;;;;;;;9.75;1.50;;;17.90;22.00;;;;;;5053188;28;20097;-63
2021/05/22 08:43:55;;;;;;;9.52;1.70;;;17.90;22.10;;;;;;5051852;28;20077;-62
2021/05/22 08:46:22;;;;;;;15.55;1.60;;;17.90;22.10;;;;;;5034663;28;20123;-61
2021/05/22 08:48:49;;;;;;;8.00;1.50;;;17.80;22.10;;;;;;5053048;28;20100;-63
2021/05/22 08:51:20;;;;;;;7.65;1.73;;;17.90;22.10;;;;;;5018345;28;20073;-61
2021/05/22 08:53:47;;;;;;;5.57;1.75;;;17.90;22.20;;;;;;5053091;28;20074;-64
2021/05/22 08:56:14;;;;;;;8.05;1.88;;;17.80;22.40;;;;;;5053132;28;20180;-60
2021/05/22 08:58:41;;;;;;;5.70;1.50;;;17.80;22.60;;;;;;5051319;28;20556;-62
2021/05/22 09:01:08;;;;;;;14.50;1.90;;;17.80;22.70;;;;;;5017215;28;20089;-63
2021/05/22 09:03:35;;;;;;;8.40;1.60;;;17.70;22.80;;;;;;5052934;28;20115;-62
2021/05/22 09:06:03;;;;;;;12.65;1.85;;;17.70;22.90;;;;;;5050048;28;20498;-62
2021/05/22 09:08:34;;;;;;;15.30;1.73;;;17.80;23.20;;;;;;5052012;28;20480;-63
2021/05/22 09:11:06;;;;;;;10.38;1.50;;;17.70;23.40;;;;;;5052774;28;20080;-64
2021/05/22 09:13:35;;;;;;;9.57;2.05;;;17.70;23.50;;;;;;5052682;28;20078;-62
2021/05/22 09:16:06;;;;;;;12.52;2.10;;;17.70;23.60;;;;;;5034891;28;20442;-62
2021/05/22 09:18:36;;;;;;;10.23;1.83;;;17.60;23.80;;;;;;5052738;28;20606;-63
2021/05/22 09:21:05;;;;;;;14.32;2.42;;;17.60;24.50;;;;;;5045874;28;20070;-64
2021/05/22 09:23:35;;;;;;;14.95;2.20;;;17.60;24.30;;;;;;5047608;28;20076;-63
2021/05/22 09:26:13;;;;;;;10.23;2.20;;;17.50;24.60;;;;;;5052819;28;20424;-63
2021/05/22 09:28:51;;;;;;;9.52;1.88;;;17.40;24.70;;;;;;5055367;28;20623;-63
2021/05/22 09:31:20;;;;;;;13.60;2.72;;;17.50;24.70;;;;;;5051354;28;20420;-63
2021/05/22 09:33:57;;;;;;;10.27;2.38;;;17.40;24.80;;;;;;5048809;28;20107;-63
2021/05/22 09:36:23;;;;;;;10.73;2.38;;;17.40;25.00;;;;;;5035373;28;20625;-63
2021/05/22 09:38:51;;;;;;;;;;;17.30;25.00;;;;;;5054183;28;20105;-63
2021/05/22 09:41:18;;;;;;;;;;;17.30;25.50;;;;;;5045687;28;19962;-59
2021/05/22 09:44:04;;;;;;;11.13;2.60;;;17.20;25.90;;;;;;5045052;28;19957;-63
2021/05/22 09:46:31;;;;;;;10.65;2.28;;;17.20;26.40;;;;;;5045332;28;20101;-64
2021/05/22 09:49:05;;;;;;;16.75;2.58;;;17.20;26.60;;;;;;5041747;28;20449;-63
2021/05/22 09:51:32;;;;;;;11.90;2.17;;;17.20;27.00;;;;;;5046893;28;20084;-63
2021/05/22 09:53:58;;;;;;;11.32;2.70;;;17.10;27.20;;;;;;5058761;28;20484;-58
2021/05/22 09:56:27;;;;;;;10.68;2.22;;;17.10;27.30;;;;;;5057012;28;21485;-63
2021/05/22 09:58:54;;;;;;;13.00;2.60;;;17.10;27.20;;;;;;5052059;28;20523;-63
2021/05/22 10:01:40;;;;;;;7.07;2.30;;;17.10;27.30;;;;;;5051594;28;20139;-63
2021/05/22 10:04:21;;;;;;;11.20;3.25;;;17.10;27.10;;;;;;5053192;28;20211;-61
2021/05/22 10:06:48;;;;;;;9.90;2.63;;;17.10;27.00;;;;;;5050159;28;20093;-63
2021/05/22 10:09:17;;;;;;;8.25;2.10;;;17.10;27.00;;;;;;5050149;28;20097;-63
2021/05/22 10:12:03;;;;;;;9.18;1.73;;;17.10;26.90;;;;;;5053388;28;20082;-62
2021/05/22 10:14:38;;;;;;;11.60;2.80;;;17.10;27.00;;;;;;5037173;28;20123;-60
2021/05/22 10:17:07;;;;;;;10.30;2.58;;;17.10;26.50;;;;;;5056118;28;20534;-61
2021/05/22 10:19:35;;;;;;;12.40;3.05;;;17.10;26.20;;;;;;5056890;28;20431;-63
2021/05/22 10:22:03;;;;;;;12.07;2.67;;;17.10;26.10;;;;;;5039020;28;20129;-63
2021/05/22 10:24:29;;;;;;;12.90;2.40;;;17.10;26.50;;;;;;5037118;28;20566;-63
2021/05/22 10:26:57;;;;;;;11.57;2.20;;;17.00;27.00;;;;;;5037753;28;20152;-63
2021/05/22 10:29:25;;;;;;;11.48;2.78;;;17.10;27.40;;;;;;5057777;28;20558;-63
2021/05/22 10:31:53;;;;;;;15.05;2.35;;;17.10;27.90;;;;;;5054894;28;20108;-64
2021/05/22 10:34:25;;;;;;;9.70;2.85;;;17.00;28.10;;;;;;5053310;28;20088;-63
2021/05/22 10:36:57;;;;;;;15.63;3.58;;;17.00;28.30;;;;;;5056780;28;20084;-63
2021/05/22 10:39:34;;;;;;;14.43;3.00;;;16.90;28.60;;;;;;5055814;28;20208;-63
2021/05/22 10:42:01;;;;;;;14.73;2.60;;;16.90;28.40;;;;;;5054532;28;20065;-63
2021/05/22 10:44:31;;;;;;;9.45;2.22;;;16.80;28.30;;;;;;5055945;28;20080;-62
2021/05/22 10:47:11;;;;;;;12.88;2.13;;;16.80;28.30;;;;;;5053928;28;20094;-62
2021/05/22 10:50:02;;;;;;;8.63;2.28;;;16.80;28.40;;;;;;5038691;28;20093;-63
2021/05/22 10:52:31;;;;;;;9.30;2.60;;;16.70;28.80;;;;;;5038621;28;20118;-64
2021/05/22 10:55:11;;;;;;;12.20;2.78;;;16.70;28.70;;;;;;5052525;28;20089;-64
2021/05/22 10:57:48;;;;;;;17.17;3.25;;;16.60;28.70;;;;;;5055262;28;20073;-62
2021/05/22 11:00:14;;;;;;;13.52;2.95;;;16.60;28.80;;;;;;5056270;28;20140;-62
2021/05/22 11:02:44;;;;;;;14.05;3.30;;;16.50;29.00;;;;;;5055893;28;20113;-61
2021/05/22 11:05:29;;;;;;;13.82;2.92;;;16.60;28.90;;;;;;5054102;28;20100;-62
2021/05/22 11:08:05;;;;;;;13.43;2.83;;;16.60;28.80;;;;;;5054860;28;20080;-62
2021/05/22 11:10:43;;;;;;;15.85;3.17;;;16.60;28.90;;;;;;5053284;28;20092;-64
2021/05/22 11:13:11;;;;;;;15.57;2.88;;;16.60;29.10;;;;;;5055431;28;20096;-62
2021/05/22 11:15:50;;;;;;;9.65;2.30;;;16.60;28.90;;;;;;5055901;28;20069;-62
2021/05/22 11:18:20;;;;;;;13.57;2.78;;;16.50;28.70;;;;;;5051954;28;20172;-62
2021/05/22 11:21:08;;;;;;;14.65;2.92;;;16.50;28.50;;;;;;5036932;28;20071;-64
2021/05/22 11:24:00;;;;;;;14.32;2.70;;;16.50;28.40;;;;;;5052205;28;20084;-61
2021/05/22 11:26:56;;;;;;;15.52;2.17;;;16.50;28.40;;;;;;5055690;28;20105;-62
2021/05/22 11:29:43;;;;;;;11.68;2.45;;;16.50;28.50;;;;;;5053990;28;20089;-63
2021/05/22 11:32:44;;;;;;;8.98;2.38;;;16.50;28.50;;;;;;5040158;28;20107;-61
2021/05/22 11:35:31;;;;;;;14.77;3.30;;;16.50;28.80;;;;;;5055747;28;20081;-63
2021/05/22 11:38:18;;;;;;;14.65;3.03;;;16.50;28.90;;;;;;5054585;28;20155;-62
2021/05/22 11:40:45;;;;;;;;;;;16.40;28.90;;;;;;5051311;28;20079;-63
2021/05/22 11:43:22;;;;;;;12.43;2.30;;;16.40;29.10;;;;;;5053766;28;19957;-63
2021/05/22 11:45:57;;;;;;;14.82;3.15;;;16.30;29.20;;;;;;5037538;28;20069;-65
2021/05/22 11:48:47;;;;;;;11.75;1.95;;;16.30;29.50;;;;;;5053873;28;20535;-64
2021/05/22 11:51:27;;;;;;;13.38;2.25;;;16.30;29.60;;;;;;5035961;28;20081;-63
2021/05/22 11:53:58;;;;;;;14.35;2.83;;;16.20;30.20;;;;;;5035766;28;20080;-63
2021/05/22 11:56:28;;;;;;;12.45;2.38;;;16.20;29.70;;;;;;5054690;28;20139;-63
2021/05/22 11:58:57;;;;;;;16.15;2.63;;;16.20;30.00;;;;;;5054997;28;20450;-64
2021/05/22 12:01:32;;;;;;;11.38;2.20;;;16.20;30.10;;;;;;5050083;28;20474;-63
2021/05/22 12:04:04;;;;;;;10.40;2.20;;;16.20;29.70;;;;;;5034997;28;20076;-63
2021/05/22 12:06:40;;;;;;;12.32;2.15;;;16.20;29.60;;;;;;5054397;28;20112;-63
2021/05/22 12:09:19;;;;;;;10.88;2.50;;;16.20;72.60;;;;;;5036335;28;20133;-64
2021/05/22 12:12:08;;;;;;;18.00;3.47;;;16.10;29.80;;;;;;5055389;28;20156;-64
2021/05/22 12:14:46;;;;;;;14.18;2.20;;;16.10;29.90;;;;;;5053945;28;20081;-62
2021/05/22 12:17:17;;;;;;;8.57;2.22;;;16.00;30.00;;;;;;5046492;28;20431;-62
2021/05/22 12:19:51;;;;;;;13.43;2.95;;;16.00;30.40;;;;;;5037273;28;20161;-62
2021/05/22 12:22:29;;;;;;;11.95;2.50;;;15.90;30.60;;;;;;5035250;28;20074;-63
2021/05/22 12:24:55;;;;;;;8.45;2.08;;;15.90;31.00;;;;;;5053791;28;20066;-62
2021/05/22 12:27:22;;;;;;;10.10;2.47;;;15.90;31.00;;;;;;5053538;28;20123;-63
2021/05/22 12:29:51;;;;;;;17.75;3.17;;;15.80;31.20;;;;;;5054181;28;20159;-62
2021/05/22 12:32:18;;;;;;;12.80;3.00;;;15.70;31.30;;;;;;5054306;28;20070;-64
2021/05/22 12:34:46;;;;;;;16.08;2.42;;;15.80;31.20;;;;;;5035915;28;20081;-62
2021/05/22 12:37:22;;;;;;;16.10;2.70;;;15.70;31.50;;;;;;5053716;28;20080;-64
2021/05/22 12:39:51;;;;;;;19.83;3.25;;;15.70;31.90;;;;;;5053022;28;20072;-63
2021/05/22 12:42:20;;;;;;;16.05;2.70;;;15.60;32.70;;;;;;5055172;28;20443;-61
2021/05/22 12:44:52;;;;;;;22.33;3.78;;;15.60;32.30;;;;;;5054127;28;20074;-62
2021/05/22 12:47:24;;;;;;;16.52;2.70;;;15.70;32.40;;;;;;5055059;28;20527;-61
2021/05/22 12:50:01;;;;;;;15.35;3.28;;;15.70;32.60;;;;;;5052770;28;20458;-62
2021/05/22 12:52:28;;;;;;;12.45;3.13;;;15.60;33.00;;;;;;5054004;28;20069;-62
2021/05/22 12:54:56;;;;;;;12.48;3.08;;;15.60;33.40;;;;;;5053277;28;20203;-63
2021/05/22 12:57:35;;;;;;;15.02;3.55;;;15.60;33.80;;;;;;5053903;28;20072;-63
2021/05/22 13:00:02;;;;;;;15.45;3.20;;;15.50;34.80;;;;;;5052702;28;20104;-63